createdAt,value
2017-06-17T00:00:39.091Z,2.37
2017-06-17T00:03:05.276Z,2.30
2017-06-17T00:05:31.475Z,2.10
2017-06-17T00:07:57.670Z,2.63
2017-06-17T00:10:24.011Z,2.70
2017-06-17T00:12:50.379Z,3.37
2017-06-17T00:15:17.309Z,2.70
2017-06-17T00:17:43.504Z,2.33
2017-06-17T00:20:09.718Z,2.07
2017-06-17T00:22:35.895Z,2.43
2017-06-17T00:25:02.107Z,2.43
2017-06-17T00:27:29.065Z,2.30
2017-06-17T00:29:56.087Z,2.67
2017-06-17T00:32:22.288Z,2.80
2017-06-17T00:34:48.503Z,2.50
2017-06-17T00:37:14.665Z,2.00
2017-06-17T00:39:43.482Z,2.20
2017-06-17T00:42:10.915Z,3.10
2017-06-17T00:44:37.131Z,2.47
2017-06-17T00:47:03.374Z,1.90
2017-06-17T00:49:31.187Z,2.23
2017-06-17T00:51:58.095Z,2.33
2017-06-17T00:54:24.587Z,2.50
2017-06-17T00:56:50.807Z,2.50
2017-06-17T00:59:17.898Z,3.00
2017-06-17T01:01:44.174Z,2.17
2017-06-17T01:04:11.242Z,2.73
2017-06-17T01:06:37.433Z,2.40
2017-06-17T01:09:03.652Z,3.27
2017-06-17T01:11:29.921Z,2.67
2017-06-17T01:13:57.422Z,2.63
2017-06-17T01:16:23.585Z,2.33
2017-06-17T01:18:50.118Z,2.40
2017-06-17T01:21:16.298Z,2.63
2017-06-17T01:23:42.549Z,3.00
2017-06-17T01:26:08.846Z,3.13
2017-06-17T01:28:35.115Z,2.40
2017-06-17T01:31:01.289Z,2.40
2017-06-17T01:33:28.347Z,2.13
2017-06-17T01:35:54.727Z,2.60
2017-06-17T01:38:20.909Z,2.60
2017-06-17T01:40:48.299Z,2.50
2017-06-17T01:43:14.454Z,2.43
2017-06-17T01:45:40.663Z,2.20
2017-06-17T01:48:06.879Z,2.20
2017-06-17T01:50:33.063Z,2.27
2017-06-17T01:53:00.050Z,2.73
2017-06-17T01:55:26.250Z,2.90
2017-06-17T01:57:52.522Z,2.93
2017-06-17T02:00:18.698Z,2.37
2017-06-17T02:02:45.638Z,2.37
2017-06-17T02:05:12.544Z,2.83
2017-06-17T02:07:38.685Z,2.50
2017-06-17T02:10:04.902Z,2.87
2017-06-17T02:12:31.079Z,2.43
2017-06-17T02:14:57.226Z,2.37
2017-06-17T02:17:23.454Z,2.03
2017-06-17T02:19:49.630Z,3.10
2017-06-17T02:22:15.798Z,2.60
2017-06-17T02:24:41.978Z,2.17
2017-06-17T02:27:08.183Z,2.50
2017-06-17T02:29:34.387Z,2.73
2017-06-17T02:32:00.567Z,1.70
2017-06-17T02:34:26.740Z,2.00
2017-06-17T02:36:52.953Z,2.90
2017-06-17T02:39:19.836Z,3.13
2017-06-17T02:41:45.986Z,2.73
2017-06-17T02:44:12.162Z,2.93
2017-06-17T02:46:38.352Z,2.70
2017-06-17T02:49:04.563Z,2.70
2017-06-17T02:51:30.736Z,2.73
2017-06-17T02:53:56.907Z,2.60
2017-06-17T02:56:23.085Z,2.60
2017-06-17T02:58:50.023Z,2.13
2017-06-17T03:01:16.927Z,2.37
2017-06-17T03:03:43.105Z,2.30
2017-06-17T03:06:10.042Z,2.60
2017-06-17T03:08:36.199Z,2.40
2017-06-17T03:11:02.411Z,2.23
2017-06-17T03:13:29.363Z,3.03
2017-06-17T03:15:56.281Z,3.27
2017-06-17T03:18:22.429Z,2.27
2017-06-17T03:20:49.350Z,2.57
2017-06-17T03:23:15.555Z,2.43
2017-06-17T03:25:41.701Z,2.27
2017-06-17T03:28:07.846Z,2.10
2017-06-17T03:30:34.051Z,2.40
2017-06-17T03:33:00.203Z,3.20
2017-06-17T03:35:26.397Z,2.57
2017-06-17T03:37:52.546Z,2.67
2017-06-17T03:40:18.707Z,1.97
2017-06-17T03:42:44.910Z,2.30
2017-06-17T03:45:11.459Z,2.50
2017-06-17T03:47:38.382Z,2.50
2017-06-17T03:50:05.583Z,2.10
2017-06-17T03:52:31.742Z,3.07
2017-06-17T03:54:57.897Z,2.67
2017-06-17T03:57:24.057Z,2.77
2017-06-17T03:59:50.254Z,2.40
2017-06-17T04:02:16.446Z,2.83
2017-06-17T04:04:42.627Z,2.47
2017-06-17T04:07:09.859Z,2.37
2017-06-17T04:09:36.088Z,2.03
2017-06-17T04:12:02.258Z,2.23
2017-06-17T04:14:28.462Z,2.40
2017-06-17T04:16:55.347Z,2.17
2017-06-17T04:19:21.549Z,2.57
2017-06-17T04:21:47.736Z,3.33
2017-06-17T04:24:14.651Z,2.60
2017-06-17T04:26:40.846Z,3.70
2017-06-17T04:29:07.063Z,2.60
2017-06-17T04:31:33.968Z,2.50
2017-06-17T04:34:00.522Z,3.07
2017-06-17T04:36:26.696Z,2.87
2017-06-17T04:38:52.930Z,2.60
2017-06-17T04:41:19.163Z,3.77
2017-06-17T04:43:45.342Z,3.10
2017-06-17T04:46:11.535Z,3.20
2017-06-17T04:48:37.702Z,2.73
2017-06-17T04:51:04.602Z,2.60
2017-06-17T04:53:30.786Z,2.70
2017-06-17T04:55:57.698Z,3.13
2017-06-17T04:58:23.895Z,2.60
2017-06-17T05:00:50.110Z,2.60
2017-06-17T05:03:16.245Z,2.97
2017-06-17T05:06:00.433Z,3.50
2017-06-17T05:08:27.010Z,3.30
2017-06-17T05:10:53.919Z,3.70
2017-06-17T05:13:20.115Z,3.40
2017-06-17T05:15:46.245Z,3.00
2017-06-17T05:18:12.423Z,3.13
2017-06-17T05:20:39.371Z,3.43
2017-06-17T05:23:06.256Z,3.47
2017-06-17T05:25:32.435Z,3.97
2017-06-17T05:27:58.622Z,3.43
2017-06-17T05:30:24.814Z,3.50
2017-06-17T05:32:51.715Z,3.07
2017-06-17T05:35:17.961Z,3.47
2017-06-17T05:37:44.140Z,3.13
2017-06-17T05:40:10.294Z,3.60
2017-06-17T05:42:36.495Z,3.37
2017-06-17T05:45:02.664Z,2.77
2017-06-17T05:47:28.813Z,3.87
2017-06-17T05:49:55.737Z,3.80
2017-06-17T05:52:21.930Z,3.43
2017-06-17T05:54:48.110Z,3.57
2017-06-17T05:57:15.052Z,3.70
2017-06-17T05:59:41.227Z,4.20
2017-06-17T06:02:07.445Z,4.00
2017-06-17T06:04:33.645Z,3.43
2017-06-17T06:07:00.570Z,4.03
2017-06-17T06:09:26.757Z,3.70
2017-06-17T06:11:52.950Z,3.80
2017-06-17T06:14:19.869Z,4.47
2017-06-17T06:16:46.071Z,3.90
2017-06-17T06:19:12.247Z,3.43
2017-06-17T06:21:39.182Z,3.17
2017-06-17T06:24:05.389Z,3.67
2017-06-17T06:26:31.535Z,3.30
2017-06-17T06:28:57.679Z,3.97
2017-06-17T06:31:24.590Z,3.30
2017-06-17T06:33:50.780Z,3.70
2017-06-17T06:36:16.974Z,4.63
2017-06-17T06:38:43.924Z,4.00
2017-06-17T06:41:10.862Z,3.57
2017-06-17T06:43:37.063Z,3.40
2017-06-17T06:46:03.234Z,3.10
2017-06-17T06:48:30.146Z,3.53
2017-06-17T06:50:56.379Z,3.37
2017-06-17T06:53:22.525Z,3.60
2017-06-17T06:55:49.500Z,3.77
2017-06-17T06:58:15.667Z,3.13
2017-06-17T07:00:41.830Z,2.90
2017-06-17T07:03:08.729Z,2.90
2017-06-17T07:05:34.890Z,2.63
2017-06-17T07:08:01.093Z,2.80
2017-06-17T07:10:27.285Z,3.43
2017-06-17T07:12:53.451Z,2.73
2017-06-17T07:15:19.654Z,2.00
2017-06-17T07:17:45.850Z,2.70
2017-06-17T07:20:12.822Z,2.60
2017-06-17T07:22:38.966Z,2.63
2017-06-17T07:25:05.156Z,3.47
2017-06-17T07:27:32.121Z,2.83
2017-06-17T07:29:58.318Z,2.77
2017-06-17T07:32:25.323Z,2.60
2017-06-17T07:34:51.505Z,2.70
2017-06-17T07:37:18.432Z,2.63
2017-06-17T07:39:44.616Z,2.40
2017-06-17T07:42:10.807Z,2.23
2017-06-17T07:44:36.993Z,2.00
2017-06-17T07:47:03.206Z,3.30
2017-06-17T07:49:29.384Z,2.20
2017-06-17T07:51:56.327Z,2.33
2017-06-17T07:54:23.264Z,2.30
2017-06-17T07:56:50.196Z,2.30
2017-06-17T07:59:16.399Z,2.23
2017-06-17T08:01:42.580Z,2.77
2017-06-17T08:04:09.540Z,2.13
2017-06-17T08:06:35.726Z,2.40
2017-06-17T08:09:01.931Z,2.17
2017-06-17T08:11:28.148Z,2.30
2017-06-17T08:13:54.321Z,2.70
2017-06-17T08:16:20.491Z,2.07
2017-06-17T08:18:46.711Z,2.37
2017-06-17T08:21:12.928Z,2.63
2017-06-17T08:23:39.828Z,2.60
2017-06-17T08:26:06.024Z,2.20
2017-06-17T08:28:32.218Z,2.73
2017-06-17T08:30:59.147Z,2.97
2017-06-17T08:33:25.355Z,2.50
2017-06-17T08:35:51.544Z,2.27
2017-06-17T08:38:17.755Z,2.30
2017-06-17T08:40:44.666Z,2.80
2017-06-17T08:43:10.893Z,2.83
2017-06-17T08:45:38.483Z,2.57
2017-06-17T08:48:05.429Z,2.43
2017-06-17T08:50:32.436Z,2.40
2017-06-17T08:53:13.566Z,3.50
2017-06-17T08:55:40.507Z,3.00
2017-06-17T08:58:07.615Z,2.90
2017-06-17T09:00:35.252Z,4.20
2017-06-17T09:03:02.129Z,2.77
2017-06-17T09:05:28.442Z,2.90
2017-06-17T09:07:54.693Z,3.13
2017-06-17T09:10:20.917Z,2.63
2017-06-17T09:12:47.114Z,2.70
2017-06-17T09:15:13.921Z,3.27
2017-06-17T09:17:40.129Z,2.90
2017-06-17T09:20:06.395Z,2.67
2017-06-17T09:22:32.625Z,2.97
2017-06-17T09:25:00.370Z,3.30
2017-06-17T09:27:27.291Z,2.87
2017-06-17T09:29:53.481Z,3.07
2017-06-17T09:32:19.931Z,3.57
2017-06-17T09:34:50.409Z,3.10
2017-06-17T09:37:17.326Z,2.53
2017-06-17T09:39:43.519Z,2.50
2017-06-17T09:42:10.236Z,2.27
2017-06-17T09:44:36.398Z,2.70
2017-06-17T09:47:02.599Z,2.97
2017-06-17T09:49:28.958Z,2.73
2017-06-17T09:51:55.184Z,3.20
2017-06-17T09:54:21.425Z,3.33
2017-06-17T09:56:47.586Z,2.83
2017-06-17T09:59:13.782Z,3.03
2017-06-17T10:01:40.004Z,2.90
2017-06-17T10:04:06.196Z,3.00
2017-06-17T10:06:32.411Z,3.40
2017-06-17T10:09:00.444Z,3.33
2017-06-17T10:11:26.655Z,3.80
2017-06-17T10:13:52.870Z,3.20
2017-06-17T10:16:19.054Z,4.20
2017-06-17T10:18:45.221Z,4.43
2017-06-17T10:21:11.893Z,4.27
2017-06-17T10:23:38.119Z,5.57
2017-06-17T10:26:04.289Z,4.83
2017-06-17T10:28:31.226Z,4.80
2017-06-17T10:30:58.128Z,4.40
2017-06-17T10:33:24.307Z,5.00
2017-06-17T10:35:51.246Z,4.90
2017-06-17T10:38:17.429Z,5.57
2017-06-17T10:40:43.655Z,5.20
2017-06-17T10:43:09.778Z,5.27
2017-06-17T10:45:35.955Z,6.87
2017-06-17T10:48:02.163Z,4.30
2017-06-17T10:50:28.348Z,6.50
2017-06-17T10:52:54.551Z,4.83
2017-06-17T10:55:21.572Z,5.60
2017-06-17T10:57:47.783Z,5.67
2017-06-17T11:00:14.008Z,3.93
2017-06-17T11:02:40.186Z,4.40
2017-06-17T11:05:07.068Z,4.90
2017-06-17T11:07:33.336Z,4.10
2017-06-17T11:09:59.566Z,4.57
2017-06-17T11:12:25.793Z,3.77
2017-06-17T11:14:51.980Z,4.27
2017-06-17T11:17:18.160Z,3.70
2017-06-17T11:19:44.341Z,4.20
2017-06-17T11:22:10.529Z,4.20
2017-06-17T11:24:37.483Z,4.80
2017-06-17T11:27:04.437Z,4.80
2017-06-17T11:29:30.631Z,4.50
2017-06-17T11:31:56.832Z,4.50
2017-06-17T11:34:23.044Z,4.80
2017-06-17T11:36:49.239Z,3.80
2017-06-17T11:39:16.241Z,4.00
2017-06-17T11:41:43.255Z,4.10
2017-06-17T11:44:09.567Z,4.07
2017-06-17T11:46:36.565Z,4.60
2017-06-17T11:49:02.773Z,4.13
2017-06-17T11:51:28.965Z,3.87
2017-06-17T11:53:55.916Z,4.20
2017-06-17T11:56:22.111Z,4.23
2017-06-17T11:58:48.332Z,3.87
2017-06-17T12:01:14.546Z,3.73
2017-06-17T12:03:40.754Z,4.53
2017-06-17T12:06:06.954Z,5.07
2017-06-17T12:08:33.919Z,4.40
2017-06-17T12:11:00.107Z,4.60
2017-06-17T12:13:26.293Z,3.90
2017-06-17T12:15:52.519Z,3.70
2017-06-17T12:18:18.797Z,3.97
2017-06-17T12:20:45.052Z,3.77
2017-06-17T12:23:12.100Z,3.80
2017-06-17T12:25:39.072Z,3.67
2017-06-17T12:28:05.257Z,3.80
2017-06-17T12:30:31.491Z,4.10
2017-06-17T12:32:58.426Z,3.80
2017-06-17T12:35:24.593Z,4.17
2017-06-17T12:37:50.798Z,4.30
2017-06-17T12:40:17.784Z,4.33
2017-06-17T12:42:44.003Z,4.57
2017-06-17T12:45:10.199Z,4.43
2017-06-17T12:47:38.623Z,4.33
2017-06-17T12:50:05.014Z,3.70
2017-06-17T12:52:34.426Z,4.20
2017-06-17T12:55:01.376Z,3.70
2017-06-17T12:57:27.581Z,4.60
2017-06-17T12:59:53.839Z,4.40
2017-06-17T13:02:20.026Z,4.33
2017-06-17T13:04:46.224Z,4.70
2017-06-17T13:07:12.457Z,4.50
2017-06-17T13:09:45.708Z,4.50
2017-06-17T13:12:12.765Z,4.47
2017-06-17T13:14:47.235Z,4.50
2017-06-17T13:17:13.550Z,4.80
2017-06-17T13:19:39.825Z,4.03
2017-06-17T13:22:09.876Z,5.03
2017-06-17T13:24:36.260Z,4.10
2017-06-17T13:27:02.483Z,3.97
2017-06-17T13:29:28.682Z,4.80
2017-06-17T13:31:54.855Z,4.17
2017-06-17T13:34:21.062Z,4.73
2017-06-17T13:36:48.498Z,5.13
2017-06-17T13:39:14.714Z,5.00
2017-06-17T13:41:40.948Z,6.33
2017-06-17T13:44:07.159Z,6.13
2017-06-17T13:46:33.364Z,5.50
2017-06-17T13:49:00.286Z,5.70
2017-06-17T13:51:26.502Z,5.63
2017-06-17T13:53:52.680Z,6.53
2017-06-17T13:56:20.591Z,6.83
2017-06-17T13:58:47.206Z,7.53
2017-06-17T14:01:13.385Z,7.20
2017-06-17T14:03:39.570Z,7.50
2017-06-17T14:06:05.913Z,7.40
2017-06-17T14:08:32.230Z,8.13
2017-06-17T14:10:58.386Z,7.30
2017-06-17T14:13:24.654Z,7.77
2017-06-17T14:15:51.615Z,7.43
2017-06-17T14:18:17.776Z,6.97
2017-06-17T14:20:44.054Z,7.33
2017-06-17T14:23:11.003Z,7.33
2017-06-17T14:25:38.799Z,6.40
2017-06-17T14:28:05.012Z,7.27
2017-06-17T14:30:31.184Z,7.10
2017-06-17T14:32:57.399Z,7.27
2017-06-17T14:35:23.603Z,7.23
2017-06-17T14:37:49.788Z,7.30
2017-06-17T14:40:16.010Z,7.90
2017-06-17T14:42:42.206Z,6.43
2017-06-17T14:45:08.389Z,7.00
2017-06-17T14:47:35.367Z,7.33
2017-06-17T14:50:01.569Z,8.27
2017-06-17T14:52:28.518Z,7.03
2017-06-17T14:54:55.447Z,7.40
2017-06-17T14:57:21.668Z,7.20
2017-06-17T14:59:47.903Z,8.07
2017-06-17T15:02:14.074Z,7.63
2017-06-17T15:04:40.294Z,7.33
2017-06-17T15:07:06.487Z,8.00
2017-06-17T15:09:32.795Z,6.20
2017-06-17T15:11:59.010Z,7.03
2017-06-17T15:14:25.194Z,6.47
2017-06-17T15:16:52.099Z,6.97
2017-06-17T15:19:18.372Z,6.40
2017-06-17T15:22:00.213Z,6.63
2017-06-17T15:24:26.426Z,7.10
2017-06-17T15:26:52.651Z,8.13
2017-06-17T15:29:18.838Z,7.40
2017-06-17T15:31:45.046Z,6.80
2017-06-17T15:34:11.182Z,7.37
2017-06-17T15:36:37.346Z,7.73
2017-06-17T15:39:03.587Z,8.67
2017-06-17T15:41:29.792Z,7.10
2017-06-17T15:43:56.727Z,7.30
2017-06-17T15:46:22.934Z,7.20
2017-06-17T15:48:49.100Z,7.60
2017-06-17T15:51:16.062Z,6.57
2017-06-17T15:53:42.266Z,6.57
2017-06-17T15:56:09.244Z,7.50
2017-06-17T15:58:35.406Z,7.10
2017-06-17T16:01:01.621Z,8.00
2017-06-17T16:03:42.706Z,7.90
2017-06-17T16:06:08.913Z,8.20
2017-06-17T16:08:35.099Z,7.90
2017-06-17T16:11:02.098Z,8.10
2017-06-17T16:13:28.280Z,8.83
2017-06-17T16:15:55.234Z,9.40
2017-06-17T16:18:22.224Z,8.17
2017-06-17T16:20:48.447Z,8.40
2017-06-17T16:23:14.627Z,8.87
2017-06-17T16:25:41.568Z,8.70
2017-06-17T16:28:08.513Z,7.70
2017-06-17T16:30:35.458Z,9.70
2017-06-17T16:33:02.437Z,10.33
2017-06-17T16:35:28.608Z,8.47
2017-06-17T16:37:54.811Z,10.10
2017-06-17T16:40:20.991Z,8.70
2017-06-17T16:42:47.927Z,9.50
2017-06-17T16:45:14.132Z,8.60
2017-06-17T16:47:40.347Z,9.20
2017-06-17T16:50:06.572Z,10.27
2017-06-17T16:52:32.795Z,9.33
2017-06-17T16:54:58.991Z,10.40
2017-06-17T16:57:25.978Z,10.87
2017-06-17T16:59:52.232Z,9.77
2017-06-17T17:02:18.810Z,9.53
2017-06-17T17:04:45.772Z,8.33
2017-06-17T17:07:11.970Z,8.80
2017-06-17T17:09:38.887Z,10.20
2017-06-17T17:12:05.082Z,10.00
2017-06-17T17:14:31.257Z,10.10
2017-06-17T17:16:57.464Z,10.07
2017-06-17T17:19:23.649Z,10.53
2017-06-17T17:21:49.954Z,10.57
2017-06-17T17:24:16.898Z,11.57
2017-06-17T17:26:43.859Z,12.00
2017-06-17T17:29:14.071Z,11.03
2017-06-17T17:31:41.035Z,10.53
2017-06-17T17:34:07.210Z,9.83
2017-06-17T17:36:33.456Z,9.50
2017-06-17T17:39:00.052Z,10.23
2017-06-17T17:41:26.250Z,11.00
2017-06-17T17:43:54.087Z,11.40
2017-06-17T17:46:36.129Z,10.73
2017-06-17T17:49:04.096Z,10.60
2017-06-17T17:51:30.267Z,10.43
2017-06-17T17:53:56.476Z,10.60
2017-06-17T17:56:22.654Z,10.03
2017-06-17T17:58:49.759Z,10.00
2017-06-17T18:01:15.968Z,9.83
2017-06-17T18:03:42.169Z,9.93
2017-06-17T18:06:09.139Z,10.53
2017-06-17T18:08:35.306Z,9.60
2017-06-17T18:11:01.473Z,11.27
2017-06-17T18:13:27.716Z,11.23
2017-06-17T18:15:53.947Z,10.30
2017-06-17T18:18:20.135Z,11.37
2017-06-17T18:20:46.338Z,11.40
2017-06-17T18:23:12.560Z,9.97
2017-06-17T18:25:38.757Z,11.20
2017-06-17T18:28:05.734Z,12.10
2017-06-17T18:30:31.962Z,10.20
2017-06-17T18:32:58.127Z,11.07
2017-06-17T18:35:24.323Z,10.17
2017-06-17T18:37:50.502Z,11.87
2017-06-17T18:40:18.281Z,10.20
2017-06-17T18:42:45.221Z,8.67
2017-06-17T18:45:12.162Z,10.40
2017-06-17T18:47:39.129Z,10.40
2017-06-17T18:50:05.315Z,10.90
2017-06-17T18:52:31.564Z,10.50
2017-06-17T18:54:58.533Z,10.30
2017-06-17T18:57:24.770Z,10.60
2017-06-17T18:59:50.973Z,9.67
2017-06-17T19:02:17.955Z,10.50
2017-06-17T19:04:44.165Z,11.17
2017-06-17T19:07:10.411Z,10.30
2017-06-17T19:09:37.408Z,11.10
2017-06-17T19:12:03.662Z,10.83
2017-06-17T19:14:30.641Z,9.40
2017-06-17T19:16:56.807Z,10.73
2017-06-17T19:19:22.987Z,9.90
2017-06-17T19:21:49.188Z,10.30
2017-06-17T19:24:16.115Z,10.17
2017-06-17T19:26:42.322Z,11.83
2017-06-17T19:29:08.587Z,10.30
2017-06-17T19:31:35.512Z,9.70
2017-06-17T19:34:02.046Z,10.60
2017-06-17T19:36:28.356Z,10.97
2017-06-17T19:38:54.577Z,11.00
2017-06-17T19:41:20.779Z,10.27
2017-06-17T19:43:47.292Z,10.40
2017-06-17T19:46:14.435Z,12.47
2017-06-17T19:48:41.520Z,11.70
2017-06-17T19:51:07.873Z,11.60
2017-06-17T19:53:34.070Z,10.63
2017-06-17T19:56:00.394Z,10.60
2017-06-17T19:58:26.688Z,9.80
2017-06-17T20:00:52.987Z,9.90
2017-06-17T20:03:19.330Z,9.70
2017-06-17T20:05:45.672Z,10.47
2017-06-17T20:08:11.958Z,10.80
2017-06-17T20:10:38.181Z,10.10
2017-06-17T20:13:04.422Z,10.70
2017-06-17T20:15:31.539Z,10.60
2017-06-17T20:17:59.542Z,11.33
2017-06-17T20:20:25.935Z,10.67
2017-06-17T20:22:52.417Z,10.87
2017-06-17T20:25:18.869Z,11.30
2017-06-17T20:27:45.253Z,11.47
2017-06-17T20:30:12.408Z,11.67
2017-06-17T20:32:39.656Z,11.70
2017-06-17T20:35:06.771Z,10.53
2017-06-17T20:37:32.964Z,11.93
2017-06-17T20:39:59.143Z,11.13
2017-06-17T20:42:25.546Z,10.13
2017-06-17T20:44:51.871Z,11.00
2017-06-17T20:47:18.161Z,11.77
2017-06-17T20:49:46.083Z,11.03
2017-06-17T20:52:12.327Z,11.90
2017-06-17T20:54:38.769Z,11.70
2017-06-17T20:57:05.775Z,10.63
2017-06-17T20:59:32.147Z,11.00
2017-06-17T21:01:58.482Z,10.20
2017-06-17T21:04:24.799Z,11.17
2017-06-17T21:06:51.138Z,12.10
2017-06-17T21:09:17.322Z,12.70
2017-06-17T21:11:46.191Z,12.33
2017-06-17T21:14:12.427Z,10.80
2017-06-17T21:16:38.631Z,12.17
2017-06-17T21:19:05.582Z,11.10
2017-06-17T21:21:32.549Z,12.30
2017-06-17T21:23:58.792Z,11.33
2017-06-17T21:26:24.991Z,11.87
2017-06-17T21:28:51.979Z,11.37
2017-06-17T21:31:18.169Z,11.00
2017-06-17T21:33:44.343Z,11.63
2017-06-17T21:36:10.617Z,13.20
2017-06-17T21:38:37.522Z,12.87
2017-06-17T21:41:03.696Z,11.90
2017-06-17T21:43:30.887Z,12.70
2017-06-17T21:45:57.095Z,11.20
2017-06-17T21:48:23.335Z,12.10
2017-06-17T21:50:49.546Z,12.20
2017-06-17T21:53:15.747Z,12.40
2017-06-17T21:55:41.922Z,12.90
2017-06-17T21:58:08.146Z,12.63
2017-06-17T22:00:34.411Z,11.70
2017-06-17T22:03:00.632Z,12.97
2017-06-17T22:05:26.806Z,13.17
2017-06-17T22:07:53.791Z,13.07
2017-06-17T22:10:19.964Z,13.60
2017-06-17T22:12:46.147Z,12.50
2017-06-17T22:15:12.411Z,12.47
2017-06-17T22:17:38.584Z,12.23
2017-06-17T22:20:04.767Z,11.83
2017-06-17T22:22:30.961Z,12.80
2017-06-17T22:24:57.206Z,12.20
2017-06-17T22:27:23.378Z,12.27
2017-06-17T22:29:50.626Z,13.23
2017-06-17T22:32:17.546Z,12.13
2017-06-17T22:34:43.753Z,11.93
2017-06-17T22:37:10.015Z,11.17
2017-06-17T22:39:36.306Z,12.40
2017-06-17T22:42:02.539Z,11.40
2017-06-17T22:44:28.732Z,11.43
2017-06-17T22:46:55.686Z,12.50
2017-06-17T22:49:21.839Z,11.40
2017-06-17T22:51:48.025Z,12.63
2017-06-17T22:54:14.977Z,12.47
2017-06-17T22:56:41.906Z,11.90
2017-06-17T22:59:08.868Z,13.17
2017-06-17T23:01:37.504Z,12.30
2017-06-17T23:04:03.775Z,11.83
2017-06-17T23:06:30.722Z,13.13
2017-06-17T23:08:57.847Z,12.20
2017-06-17T23:11:24.200Z,12.30
2017-06-17T23:13:51.142Z,12.10
2017-06-17T23:16:18.066Z,12.13
2017-06-17T23:18:44.419Z,12.60
2017-06-17T23:21:11.378Z,12.57
2017-06-17T23:23:38.437Z,11.07
2017-06-17T23:26:04.752Z,11.07
2017-06-17T23:28:31.857Z,12.00
2017-06-17T23:30:59.248Z,13.50
2017-06-17T23:33:27.024Z,13.10
2017-06-17T23:35:53.972Z,11.40
2017-06-17T23:38:20.928Z,11.80
2017-06-17T23:40:48.116Z,12.57
2017-06-17T23:43:15.243Z,12.40
2017-06-17T23:45:41.448Z,11.50
2017-06-17T23:48:08.341Z,11.90
2017-06-17T23:50:34.602Z,12.70
2017-06-17T23:53:00.770Z,11.37
2017-06-17T23:55:26.948Z,11.90
2017-06-17T23:57:53.248Z,11.13
